Aérodrome :
LOGIN :

S'inscrire | Disclaimer

   EN    FR    IT 

 










Légende :    VFR   VFR Marginal   IFR   IFR Intensif   IFR Très Intensif
Visi : 
Plafond : 
>= 8 km
>= 3000ft
5 à 8 km
1000 à 3000 ft
1500m à 5 km
500 à 1000 ft
800 à 1500m
200 à 500 ft
< 800m
< 200 ft
Symboles :   Orages  Brouillard  Fortes neiges  Fortes précipitations  Vent > 20 kt
SIGMETs :   Divers  Orages  Givrage  Turbulence  Onde Orograph.  Cendres Volcan.







- Altitude de l'aérodrome : 218 ft


EGYD - RAF Cranwell

DERNIER METAR :
  • 251450Z 06008KT 7000 HZ FEW018 BKN090 18/15 Q1021 WHT NOSIG

METARs EXPIRÉS :
  • 251350Z 07004KT 6000 HZ FEW016 BKN090 18/14 Q1021 WHT TEMPO SCT016 WHT
  • 251250Z 08004KT 5000 HZ SCT014 BKN090 18/15 Q1021 GRN BECMG SCT015 WHT
  • 251150Z 08005KT 4000 HZ SCT010 BKN090 17/15 Q1020 GRN BECMG 5000 HZ GRN

TAF TAF EGYD
Valide du 25 à 15h jusqu'au 25 à 18h UTC


251348Z 2515/2518 10006KT 7000 HZ BKN045
PROB40 2515/2518 9999 NSW SCT015
Pas de NOTAMs connus pour ce terrain.



MET'MAP, la Météo Aéronautique d'un coup d'oeil ! - Copyright ORBIFLY Décembre 2007 - Disclaimer

ORBIFLY MET'MAP TEAM :

Programmation & Développement : Alexandra Zaïnal
Conception & Développement : Baudouin d'Aumeries
Co-Programmation & Développement : Marc-Olivier Méhu
Soutien technique & logistique : Manuel Goepfert

Contact : metmap@orbifly.com




SOURCES & CREDITS :

   NOAA